sensor_id;sensor_type;location;lat;lon;timestamp;P1;durP1;ratioP1;P2;durP2;ratioP2
30553;SDS011;17335;50.720;7.452;2023-11-21T00:00:13;9.07;;;4.18;;
30553;SDS011;17335;50.720;7.452;2023-11-21T00:02:41;9.40;;;4.43;;
30553;SDS011;17335;50.720;7.452;2023-11-21T00:05:09;9.80;;;5.10;;
30553;SDS011;17335;50.720;7.452;2023-11-21T00:07:37;10.82;;;5.07;;
30553;SDS011;17335;50.720;7.452;2023-11-21T00:10:04;10.30;;;4.00;;
30553;SDS011;17335;50.720;7.452;2023-11-21T00:12:34;12.90;;;4.20;;
30553;SDS011;17335;50.720;7.452;2023-11-21T00:15:01;12.30;;;4.75;;
30553;SDS011;17335;50.720;7.452;2023-11-21T00:17:28;9.45;;;4.60;;
30553;SDS011;17335;50.720;7.452;2023-11-21T00:19:55;10.55;;;4.85;;
30553;SDS011;17335;50.720;7.452;2023-11-21T00:22:22;10.15;;;5.10;;
30553;SDS011;17335;50.720;7.452;2023-11-21T00:24:48;7.60;;;4.50;;
30553;SDS011;17335;50.720;7.452;2023-11-21T00:27:16;13.30;;;5.80;;
30553;SDS011;17335;50.720;7.452;2023-11-21T00:29:42;12.60;;;5.50;;
30553;SDS011;17335;50.720;7.452;2023-11-21T00:32:09;19.00;;;5.97;;
30553;SDS011;17335;50.720;7.452;2023-11-21T00:34:35;11.60;;;4.88;;
30553;SDS011;17335;50.720;7.452;2023-11-21T00:37:03;10.85;;;5.57;;
30553;SDS011;17335;50.720;7.452;2023-11-21T00:39:30;20.80;;;5.72;;
30553;SDS011;17335;50.720;7.452;2023-11-21T00:41:56;10.00;;;5.35;;
30553;SDS011;17335;50.720;7.452;2023-11-21T00:44:23;13.65;;;5.40;;
30553;SDS011;17335;50.720;7.452;2023-11-21T00:46:49;12.23;;;5.50;;
30553;SDS011;17335;50.720;7.452;2023-11-21T00:49:16;11.95;;;6.43;;
30553;SDS011;17335;50.720;7.452;2023-11-21T00:51:43;11.75;;;5.57;;
30553;SDS011;17335;50.720;7.452;2023-11-21T00:54:09;13.43;;;5.80;;
30553;SDS011;17335;50.720;7.452;2023-11-21T00:56:37;12.20;;;5.75;;
30553;SDS011;17335;50.720;7.452;2023-11-21T00:59:03;12.00;;;5.90;;
30553;SDS011;17335;50.720;7.452;2023-11-21T01:01:31;13.02;;;5.55;;
30553;SDS011;17335;50.720;7.452;2023-11-21T01:03:58;13.63;;;5.30;;
30553;SDS011;17335;50.720;7.452;2023-11-21T01:06:24;12.68;;;5.00;;
30553;SDS011;17335;50.720;7.452;2023-11-21T01:08:51;12.07;;;4.60;;
30553;SDS011;17335;50.720;7.452;2023-11-21T01:11:17;14.18;;;5.15;;
30553;SDS011;17335;50.720;7.452;2023-11-21T01:13:44;11.18;;;4.65;;
30553;SDS011;17335;50.720;7.452;2023-11-21T01:16:11;13.07;;;4.85;;
30553;SDS011;17335;50.720;7.452;2023-11-21T01:18:37;16.65;;;5.82;;
30553;SDS011;17335;50.720;7.452;2023-11-21T01:21:04;10.82;;;5.00;;
30553;SDS011;17335;50.720;7.452;2023-11-21T01:23:31;10.15;;;4.15;;
30553;SDS011;17335;50.720;7.452;2023-11-21T01:25:57;8.23;;;3.67;;
30553;SDS011;17335;50.720;7.452;2023-11-21T01:28:24;10.68;;;4.97;;
30553;SDS011;17335;50.720;7.452;2023-11-21T01:30:50;10.02;;;4.70;;
30553;SDS011;17335;50.720;7.452;2023-11-21T01:33:17;10.63;;;4.88;;
30553;SDS011;17335;50.720;7.452;2023-11-21T01:35:44;13.23;;;5.03;;
30553;SDS011;17335;50.720;7.452;2023-11-21T01:38:12;9.00;;;4.47;;
30553;SDS011;17335;50.720;7.452;2023-11-21T01:40:39;13.93;;;5.30;;
30553;SDS011;17335;50.720;7.452;2023-11-21T01:43:06;13.27;;;4.75;;
30553;SDS011;17335;50.720;7.452;2023-11-21T01:45:34;9.02;;;4.20;;
30553;SDS011;17335;50.720;7.452;2023-11-21T01:48:01;11.13;;;4.65;;
30553;SDS011;17335;50.720;7.452;2023-11-21T01:50:29;12.13;;;4.38;;
30553;SDS011;17335;50.720;7.452;2023-11-21T01:52:56;11.57;;;4.85;;
30553;SDS011;17335;50.720;7.452;2023-11-21T01:55:23;11.20;;;5.15;;
30553;SDS011;17335;50.720;7.452;2023-11-21T01:57:54;15.88;;;5.15;;
30553;SDS011;17335;50.720;7.452;2023-11-21T02:00:22;12.45;;;4.43;;
30553;SDS011;17335;50.720;7.452;2023-11-21T02:02:50;10.63;;;4.50;;
30553;SDS011;17335;50.720;7.452;2023-11-21T02:05:17;10.60;;;4.18;;
30553;SDS011;17335;50.720;7.452;2023-11-21T02:07:45;10.57;;;4.35;;
30553;SDS011;17335;50.720;7.452;2023-11-21T02:13:58;12.68;;;4.57;;
30553;SDS011;17335;50.720;7.452;2023-11-21T02:16:25;10.38;;;4.32;;
30553;SDS011;17335;50.720;7.452;2023-11-21T02:18:53;10.55;;;4.78;;
30553;SDS011;17335;50.720;7.452;2023-11-21T02:21:20;11.68;;;5.07;;
30553;SDS011;17335;50.720;7.452;2023-11-21T02:23:47;10.85;;;4.93;;
30553;SDS011;17335;50.720;7.452;2023-11-21T02:26:13;19.20;;;4.32;;
30553;SDS011;17335;50.720;7.452;2023-11-21T02:28:40;10.77;;;4.25;;
30553;SDS011;17335;50.720;7.452;2023-11-21T02:31:06;9.57;;;4.30;;
30553;SDS011;17335;50.720;7.452;2023-11-21T02:33:34;10.65;;;4.25;;
30553;SDS011;17335;50.720;7.452;2023-11-21T02:36:02;14.88;;;4.22;;
30553;SDS011;17335;50.720;7.452;2023-11-21T02:38:29;14.70;;;5.20;;
30553;SDS011;17335;50.720;7.452;2023-11-21T02:40:57;11.43;;;4.88;;
30553;SDS011;17335;50.720;7.452;2023-11-21T02:43:25;7.82;;;4.07;;
30553;SDS011;17335;50.720;7.452;2023-11-21T02:45:52;14.15;;;4.68;;
30553;SDS011;17335;50.720;7.452;2023-11-21T02:48:19;14.05;;;4.32;;
30553;SDS011;17335;50.720;7.452;2023-11-21T02:50:46;11.25;;;4.10;;
30553;SDS011;17335;50.720;7.452;2023-11-21T02:53:12;10.18;;;4.70;;
30553;SDS011;17335;50.720;7.452;2023-11-21T02:55:39;7.65;;;3.95;;
30553;SDS011;17335;50.720;7.452;2023-11-21T02:58:05;10.45;;;3.80;;
30553;SDS011;17335;50.720;7.452;2023-11-21T03:00:32;10.48;;;5.03;;
30553;SDS011;17335;50.720;7.452;2023-11-21T03:02:59;10.82;;;4.72;;
30553;SDS011;17335;50.720;7.452;2023-11-21T03:05:27;11.95;;;4.90;;
30553;SDS011;17335;50.720;7.452;2023-11-21T03:07:55;12.07;;;4.95;;
30553;SDS011;17335;50.720;7.452;2023-11-21T03:10:22;11.95;;;5.07;;
30553;SDS011;17335;50.720;7.452;2023-11-21T03:12:49;11.25;;;4.60;;
30553;SDS011;17335;50.720;7.452;2023-11-21T03:15:16;10.75;;;4.82;;
30553;SDS011;17335;50.720;7.452;2023-11-21T03:17:42;10.07;;;4.70;;
30553;SDS011;17335;50.720;7.452;2023-11-21T03:20:09;12.00;;;4.15;;
30553;SDS011;17335;50.720;7.452;2023-11-21T03:22:38;11.20;;;5.00;;
30553;SDS011;17335;50.720;7.452;2023-11-21T03:25:05;9.30;;;4.22;;
30553;SDS011;17335;50.720;7.452;2023-11-21T03:27:32;11.00;;;4.65;;
30553;SDS011;17335;50.720;7.452;2023-11-21T03:29:59;13.63;;;4.78;;
30553;SDS011;17335;50.720;7.452;2023-11-21T03:32:25;14.27;;;4.60;;
30553;SDS011;17335;50.720;7.452;2023-11-21T03:34:53;11.82;;;4.32;;
30553;SDS011;17335;50.720;7.452;2023-11-21T03:37:22;7.03;;;3.67;;
30553;SDS011;17335;50.720;7.452;2023-11-21T03:39:49;10.10;;;4.80;;
30553;SDS011;17335;50.720;7.452;2023-11-21T03:42:15;12.68;;;4.10;;
30553;SDS011;17335;50.720;7.452;2023-11-21T03:44:42;9.75;;;4.38;;
30553;SDS011;17335;50.720;7.452;2023-11-21T03:47:08;10.10;;;4.53;;
30553;SDS011;17335;50.720;7.452;2023-11-21T03:49:35;12.68;;;5.25;;
30553;SDS011;17335;50.720;7.452;2023-11-21T03:52:01;11.35;;;5.03;;
30553;SDS011;17335;50.720;7.452;2023-11-21T03:54:28;11.30;;;4.68;;
30553;SDS011;17335;50.720;7.452;2023-11-21T03:56:55;13.20;;;4.72;;
30553;SDS011;17335;50.720;7.452;2023-11-21T03:59:22;9.57;;;4.47;;
30553;SDS011;17335;50.720;7.452;2023-11-21T04:01:51;9.48;;;4.10;;
30553;SDS011;17335;50.720;7.452;2023-11-21T04:04:18;12.40;;;4.03;;
30553;SDS011;17335;50.720;7.452;2023-11-21T04:06:44;8.73;;;4.07;;
30553;SDS011;17335;50.720;7.452;2023-11-21T04:09:11;11.13;;;4.57;;
30553;SDS011;17335;50.720;7.452;2023-11-21T04:11:38;8.27;;;4.18;;
30553;SDS011;17335;50.720;7.452;2023-11-21T04:14:05;12.52;;;5.00;;
30553;SDS011;17335;50.720;7.452;2023-11-21T04:16:31;11.25;;;4.68;;
30553;SDS011;17335;50.720;7.452;2023-11-21T04:18:58;13.30;;;5.10;;
30553;SDS011;17335;50.720;7.452;2023-11-21T04:21:25;15.25;;;5.85;;
30553;SDS011;17335;50.720;7.452;2023-11-21T04:23:51;12.93;;;5.25;;
30553;SDS011;17335;50.720;7.452;2023-11-21T04:26:17;14.77;;;5.72;;
30553;SDS011;17335;50.720;7.452;2023-11-21T04:28:44;14.95;;;5.63;;
30553;SDS011;17335;50.720;7.452;2023-11-21T04:31:11;18.40;;;5.80;;
30553;SDS011;17335;50.720;7.452;2023-11-21T04:33:37;11.20;;;5.07;;
30553;SDS011;17335;50.720;7.452;2023-11-21T04:36:04;13.13;;;5.60;;
30553;SDS011;17335;50.720;7.452;2023-11-21T04:38:30;13.32;;;4.93;;
30553;SDS011;17335;50.720;7.452;2023-11-21T04:40:57;11.60;;;4.97;;
30553;SDS011;17335;50.720;7.452;2023-11-21T04:43:27;14.43;;;5.03;;
30553;SDS011;17335;50.720;7.452;2023-11-21T04:45:54;15.85;;;5.40;;
30553;SDS011;17335;50.720;7.452;2023-11-21T04:48:21;14.70;;;5.53;;
30553;SDS011;17335;50.720;7.452;2023-11-21T04:50:47;16.80;;;5.85;;
30553;SDS011;17335;50.720;7.452;2023-11-21T04:53:14;10.77;;;4.68;;
30553;SDS011;17335;50.720;7.452;2023-11-21T04:55:40;20.75;;;7.75;;
30553;SDS011;17335;50.720;7.452;2023-11-21T04:58:07;16.70;;;6.10;;
30553;SDS011;17335;50.720;7.452;2023-11-21T05:00:34;15.07;;;7.07;;
30553;SDS011;17335;50.720;7.452;2023-11-21T05:03:03;13.40;;;6.47;;
30553;SDS011;17335;50.720;7.452;2023-11-21T05:05:31;14.52;;;6.80;;
30553;SDS011;17335;50.720;7.452;2023-11-21T05:07:57;19.58;;;7.75;;
30553;SDS011;17335;50.720;7.452;2023-11-21T05:10:24;18.05;;;7.93;;
30553;SDS011;17335;50.720;7.452;2023-11-21T05:12:50;17.02;;;7.90;;
30553;SDS011;17335;50.720;7.452;2023-11-21T05:15:17;20.05;;;8.38;;
30553;SDS011;17335;50.720;7.452;2023-11-21T05:17:44;22.02;;;9.32;;
30553;SDS011;17335;50.720;7.452;2023-11-21T05:20:12;20.13;;;8.85;;
30553;SDS011;17335;50.720;7.452;2023-11-21T05:22:40;18.48;;;8.10;;
30553;SDS011;17335;50.720;7.452;2023-11-21T05:25:08;18.95;;;8.10;;
30553;SDS011;17335;50.720;7.452;2023-11-21T05:27:35;14.82;;;7.95;;
30553;SDS011;17335;50.720;7.452;2023-11-21T05:30:02;17.83;;;8.40;;
30553;SDS011;17335;50.720;7.452;2023-11-21T05:32:34;19.35;;;8.10;;
30553;SDS011;17335;50.720;7.452;2023-11-21T05:35:01;15.45;;;6.80;;
30553;SDS011;17335;50.720;7.452;2023-11-21T05:37:28;20.02;;;8.30;;
30553;SDS011;17335;50.720;7.452;2023-11-21T05:39:55;18.98;;;7.65;;
30553;SDS011;17335;50.720;7.452;2023-11-21T05:42:23;21.65;;;8.30;;
30553;SDS011;17335;50.720;7.452;2023-11-21T05:44:50;18.05;;;8.45;;
30553;SDS011;17335;50.720;7.452;2023-11-21T05:47:17;24.40;;;8.38;;
30553;SDS011;17335;50.720;7.452;2023-11-21T05:49:44;22.23;;;8.10;;
30553;SDS011;17335;50.720;7.452;2023-11-21T05:52:12;17.92;;;7.68;;
30553;SDS011;17335;50.720;7.452;2023-11-21T05:54:39;21.25;;;8.38;;
30553;SDS011;17335;50.720;7.452;2023-11-21T05:57:05;18.73;;;7.88;;
30553;SDS011;17335;50.720;7.452;2023-11-21T05:59:31;19.50;;;8.88;;
30553;SDS011;17335;50.720;7.452;2023-11-21T06:02:00;22.75;;;8.63;;
30553;SDS011;17335;50.720;7.452;2023-11-21T06:04:28;19.92;;;7.65;;
30553;SDS011;17335;50.720;7.452;2023-11-21T06:06:55;23.40;;;9.30;;
30553;SDS011;17335;50.720;7.452;2023-11-21T06:09:21;17.40;;;7.93;;
30553;SDS011;17335;50.720;7.452;2023-11-21T06:11:48;19.05;;;7.93;;
30553;SDS011;17335;50.720;7.452;2023-11-21T06:14:15;24.13;;;8.23;;
30553;SDS011;17335;50.720;7.452;2023-11-21T06:16:44;23.23;;;7.85;;
30553;SDS011;17335;50.720;7.452;2023-11-21T06:19:11;14.32;;;7.55;;
30553;SDS011;17335;50.720;7.452;2023-11-21T06:21:38;18.02;;;7.35;;
30553;SDS011;17335;50.720;7.452;2023-11-21T06:24:05;21.10;;;8.45;;
30553;SDS011;17335;50.720;7.452;2023-11-21T06:26:31;21.05;;;8.55;;
30553;SDS011;17335;50.720;7.452;2023-11-21T06:28:58;18.23;;;7.82;;
30553;SDS011;17335;50.720;7.452;2023-11-21T06:31:25;16.27;;;8.02;;
30553;SDS011;17335;50.720;7.452;2023-11-21T06:33:51;23.17;;;8.98;;
30553;SDS011;17335;50.720;7.452;2023-11-21T06:36:19;17.13;;;8.80;;
30553;SDS011;17335;50.720;7.452;2023-11-21T06:38:45;19.75;;;8.27;;
30553;SDS011;17335;50.720;7.452;2023-11-21T06:41:12;25.23;;;9.18;;
30553;SDS011;17335;50.720;7.452;2023-11-21T06:43:42;21.52;;;9.20;;
30553;SDS011;17335;50.720;7.452;2023-11-21T06:46:12;20.48;;;8.68;;
30553;SDS011;17335;50.720;7.452;2023-11-21T06:48:42;26.17;;;9.25;;
30553;SDS011;17335;50.720;7.452;2023-11-21T06:51:09;24.90;;;9.48;;
30553;SDS011;17335;50.720;7.452;2023-11-21T06:53:36;25.20;;;9.68;;
30553;SDS011;17335;50.720;7.452;2023-11-21T06:56:04;23.63;;;10.30;;
30553;SDS011;17335;50.720;7.452;2023-11-21T06:58:41;22.15;;;9.65;;
30553;SDS011;17335;50.720;7.452;2023-11-21T07:01:08;22.25;;;8.32;;
30553;SDS011;17335;50.720;7.452;2023-11-21T07:03:34;21.00;;;8.73;;
30553;SDS011;17335;50.720;7.452;2023-11-21T07:06:03;18.65;;;8.98;;
30553;SDS011;17335;50.720;7.452;2023-11-21T07:08:30;22.40;;;8.65;;
30553;SDS011;17335;50.720;7.452;2023-11-21T07:10:57;21.02;;;9.38;;
30553;SDS011;17335;50.720;7.452;2023-11-21T07:13:23;22.80;;;9.65;;
30553;SDS011;17335;50.720;7.452;2023-11-21T07:15:50;20.88;;;9.32;;
30553;SDS011;17335;50.720;7.452;2023-11-21T07:18:16;18.05;;;9.05;;
30553;SDS011;17335;50.720;7.452;2023-11-21T07:20:43;23.13;;;9.02;;
30553;SDS011;17335;50.720;7.452;2023-11-21T07:23:09;24.38;;;9.13;;
30553;SDS011;17335;50.720;7.452;2023-11-21T07:25:36;22.70;;;9.18;;
30553;SDS011;17335;50.720;7.452;2023-11-21T07:28:03;20.45;;;8.70;;
30553;SDS011;17335;50.720;7.452;2023-11-21T07:30:31;24.20;;;10.05;;
30553;SDS011;17335;50.720;7.452;2023-11-21T07:32:58;27.95;;;10.27;;
30553;SDS011;17335;50.720;7.452;2023-11-21T07:35:25;42.40;;;11.88;;
30553;SDS011;17335;50.720;7.452;2023-11-21T07:37:51;30.20;;;11.18;;
30553;SDS011;17335;50.720;7.452;2023-11-21T07:40:18;28.63;;;11.57;;
30553;SDS011;17335;50.720;7.452;2023-11-21T07:42:44;31.05;;;12.02;;
30553;SDS011;17335;50.720;7.452;2023-11-21T07:45:11;33.33;;;13.52;;
30553;SDS011;17335;50.720;7.452;2023-11-21T07:47:37;39.75;;;13.50;;
30553;SDS011;17335;50.720;7.452;2023-11-21T07:50:05;40.08;;;14.60;;
30553;SDS011;17335;50.720;7.452;2023-11-21T07:52:34;39.60;;;13.80;;
30553;SDS011;17335;50.720;7.452;2023-11-21T07:55:00;41.45;;;14.05;;
30553;SDS011;17335;50.720;7.452;2023-11-21T07:57:27;35.97;;;13.95;;
30553;SDS011;17335;50.720;7.452;2023-11-21T07:59:54;37.53;;;13.40;;
30553;SDS011;17335;50.720;7.452;2023-11-21T08:02:21;41.50;;;12.57;;
30553;SDS011;17335;50.720;7.452;2023-11-21T08:04:48;38.13;;;13.45;;
30553;SDS011;17335;50.720;7.452;2023-11-21T08:07:17;40.90;;;13.68;;
30553;SDS011;17335;50.720;7.452;2023-11-21T08:09:44;39.28;;;12.98;;
30553;SDS011;17335;50.720;7.452;2023-11-21T08:12:10;45.47;;;14.25;;
30553;SDS011;17335;50.720;7.452;2023-11-21T08:14:37;44.30;;;15.13;;
30553;SDS011;17335;50.720;7.452;2023-11-21T08:17:05;46.15;;;14.93;;
30553;SDS011;17335;50.720;7.452;2023-11-21T08:19:32;41.10;;;12.82;;
30553;SDS011;17335;50.720;7.452;2023-11-21T08:21:59;40.55;;;14.55;;
30553;SDS011;17335;50.720;7.452;2023-11-21T08:24:25;35.13;;;12.63;;
30553;SDS011;17335;50.720;7.452;2023-11-21T08:26:52;46.60;;;14.30;;
30553;SDS011;17335;50.720;7.452;2023-11-21T08:29:20;51.08;;;16.48;;
30553;SDS011;17335;50.720;7.452;2023-11-21T08:31:47;45.95;;;14.65;;
30553;SDS011;17335;50.720;7.452;2023-11-21T08:34:14;37.00;;;13.98;;
30553;SDS011;17335;50.720;7.452;2023-11-21T08:36:44;44.33;;;14.23;;
30553;SDS011;17335;50.720;7.452;2023-11-21T08:39:11;40.25;;;13.35;;
30553;SDS011;17335;50.720;7.452;2023-11-21T08:41:39;46.40;;;15.02;;
30553;SDS011;17335;50.720;7.452;2023-11-21T08:44:06;46.45;;;16.48;;
30553;SDS011;17335;50.720;7.452;2023-11-21T08:46:33;50.25;;;15.60;;
30553;SDS011;17335;50.720;7.452;2023-11-21T08:49:01;40.08;;;15.15;;
30553;SDS011;17335;50.720;7.452;2023-11-21T08:51:27;49.45;;;15.80;;
30553;SDS011;17335;50.720;7.452;2023-11-21T08:53:54;44.60;;;15.32;;
30553;SDS011;17335;50.720;7.452;2023-11-21T08:56:21;48.00;;;14.50;;
30553;SDS011;17335;50.720;7.452;2023-11-21T08:58:47;49.20;;;15.25;;
30553;SDS011;17335;50.720;7.452;2023-11-21T09:01:14;44.70;;;14.68;;
30553;SDS011;17335;50.720;7.452;2023-11-21T09:03:40;51.67;;;16.15;;
30553;SDS011;17335;50.720;7.452;2023-11-21T09:06:07;49.33;;;15.55;;
30553;SDS011;17335;50.720;7.452;2023-11-21T09:08:36;60.97;;;16.08;;
30553;SDS011;17335;50.720;7.452;2023-11-21T09:11:02;50.50;;;15.52;;
30553;SDS011;17335;50.720;7.452;2023-11-21T09:13:29;44.28;;;15.20;;
30553;SDS011;17335;50.720;7.452;2023-11-21T09:15:56;44.97;;;16.13;;
30553;SDS011;17335;50.720;7.452;2023-11-21T09:18:23;43.38;;;14.02;;
30553;SDS011;17335;50.720;7.452;2023-11-21T09:20:50;33.75;;;12.63;;
30553;SDS011;17335;50.720;7.452;2023-11-21T09:23:17;44.28;;;14.68;;
30553;SDS011;17335;50.720;7.452;2023-11-21T09:25:43;48.08;;;14.82;;
30553;SDS011;17335;50.720;7.452;2023-11-21T09:28:12;44.22;;;14.70;;
30553;SDS011;17335;50.720;7.452;2023-11-21T09:30:39;43.90;;;15.68;;
30553;SDS011;17335;50.720;7.452;2023-11-21T09:33:05;42.13;;;14.38;;
30553;SDS011;17335;50.720;7.452;2023-11-21T09:35:32;47.80;;;14.82;;
30553;SDS011;17335;50.720;7.452;2023-11-21T09:37:59;46.85;;;14.80;;
30553;SDS011;17335;50.720;7.452;2023-11-21T09:40:28;52.33;;;15.60;;
30553;SDS011;17335;50.720;7.452;2023-11-21T09:42:55;39.00;;;13.70;;
30553;SDS011;17335;50.720;7.452;2023-11-21T09:45:29;40.50;;;13.48;;
30553;SDS011;17335;50.720;7.452;2023-11-21T09:48:00;43.30;;;13.38;;
30553;SDS011;17335;50.720;7.452;2023-11-21T09:50:27;47.60;;;13.63;;
30553;SDS011;17335;50.720;7.452;2023-11-21T09:52:57;37.10;;;12.95;;
30553;SDS011;17335;50.720;7.452;2023-11-21T09:55:39;41.17;;;13.57;;
30553;SDS011;17335;50.720;7.452;2023-11-21T09:58:08;43.22;;;14.43;;
30553;SDS011;17335;50.720;7.452;2023-11-21T10:00:41;43.63;;;13.82;;
30553;SDS011;17335;50.720;7.452;2023-11-21T10:03:10;41.08;;;13.68;;
30553;SDS011;17335;50.720;7.452;2023-11-21T10:05:38;39.22;;;14.02;;
30553;SDS011;17335;50.720;7.452;2023-11-21T10:08:08;44.25;;;14.75;;
30553;SDS011;17335;50.720;7.452;2023-11-21T10:10:36;56.50;;;15.30;;
30553;SDS011;17335;50.720;7.452;2023-11-21T10:13:05;44.85;;;14.50;;
30553;SDS011;17335;50.720;7.452;2023-11-21T10:15:34;41.20;;;12.65;;
30553;SDS011;17335;50.720;7.452;2023-11-21T10:18:04;40.33;;;13.65;;
30553;SDS011;17335;50.720;7.452;2023-11-21T10:20:33;40.13;;;15.57;;
30553;SDS011;17335;50.720;7.452;2023-11-21T10:23:00;41.15;;;13.93;;
30553;SDS011;17335;50.720;7.452;2023-11-21T10:25:30;51.10;;;15.25;;
30553;SDS011;17335;50.720;7.452;2023-11-21T10:27:58;53.08;;;16.80;;
30553;SDS011;17335;50.720;7.452;2023-11-21T10:30:34;44.97;;;14.75;;
30553;SDS011;17335;50.720;7.452;2023-11-21T10:33:05;44.63;;;16.30;;
30553;SDS011;17335;50.720;7.452;2023-11-21T10:38:08;39.58;;;13.88;;
30553;SDS011;17335;50.720;7.452;2023-11-21T10:40:40;38.60;;;13.60;;
30553;SDS011;17335;50.720;7.452;2023-11-21T10:43:08;47.38;;;15.05;;
30553;SDS011;17335;50.720;7.452;2023-11-21T10:45:39;48.05;;;15.18;;
30553;SDS011;17335;50.720;7.452;2023-11-21T10:48:06;48.40;;;13.77;;
30553;SDS011;17335;50.720;7.452;2023-11-21T10:50:34;35.20;;;13.18;;
30553;SDS011;17335;50.720;7.452;2023-11-21T10:53:02;35.85;;;14.80;;
30553;SDS011;17335;50.720;7.452;2023-11-21T10:55:31;37.45;;;15.20;;
30553;SDS011;17335;50.720;7.452;2023-11-21T10:57:59;44.03;;;14.85;;
30553;SDS011;17335;50.720;7.452;2023-11-21T11:00:29;46.03;;;15.10;;
30553;SDS011;17335;50.720;7.452;2023-11-21T11:02:56;37.85;;;13.30;;
30553;SDS011;17335;50.720;7.452;2023-11-21T11:05:28;45.08;;;13.85;;
30553;SDS011;17335;50.720;7.452;2023-11-21T11:07:58;37.92;;;15.43;;
30553;SDS011;17335;50.720;7.452;2023-11-21T11:10:27;41.60;;;14.43;;
30553;SDS011;17335;50.720;7.452;2023-11-21T11:12:58;40.80;;;14.25;;
30553;SDS011;17335;50.720;7.452;2023-11-21T11:15:25;42.97;;;15.43;;
30553;SDS011;17335;50.720;7.452;2023-11-21T11:17:53;37.15;;;13.90;;
30553;SDS011;17335;50.720;7.452;2023-11-21T11:20:25;39.45;;;13.73;;
30553;SDS011;17335;50.720;7.452;2023-11-21T11:26:17;33.22;;;14.27;;
30553;SDS011;17335;50.720;7.452;2023-11-21T11:36:50;37.15;;;14.13;;
30553;SDS011;17335;50.720;7.452;2023-11-21T11:39:38;38.22;;;14.93;;
30553;SDS011;17335;50.720;7.452;2023-11-21T11:42:14;39.67;;;15.20;;
30553;SDS011;17335;50.720;7.452;2023-11-21T11:50:01;37.38;;;14.73;;
30553;SDS011;17335;50.720;7.452;2023-11-21T11:52:44;36.90;;;15.13;;
30553;SDS011;17335;50.720;7.452;2023-11-21T11:55:12;42.25;;;15.85;;
30553;SDS011;17335;50.720;7.452;2023-11-21T11:57:41;42.13;;;14.65;;
30553;SDS011;17335;50.720;7.452;2023-11-21T12:00:12;45.35;;;14.98;;
30553;SDS011;17335;50.720;7.452;2023-11-21T12:02:44;42.53;;;15.50;;
30553;SDS011;17335;50.720;7.452;2023-11-21T12:05:17;44.92;;;15.00;;
30553;SDS011;17335;50.720;7.452;2023-11-21T12:07:45;50.55;;;17.10;;
30553;SDS011;17335;50.720;7.452;2023-11-21T12:10:14;39.38;;;14.88;;
30553;SDS011;17335;50.720;7.452;2023-11-21T12:12:45;38.72;;;14.70;;
30553;SDS011;17335;50.720;7.452;2023-11-21T12:15:13;39.88;;;15.57;;
30553;SDS011;17335;50.720;7.452;2023-11-21T12:17:41;43.20;;;16.35;;
30553;SDS011;17335;50.720;7.452;2023-11-21T12:20:12;37.47;;;14.93;;
30553;SDS011;17335;50.720;7.452;2023-11-21T12:22:47;48.97;;;14.38;;
30553;SDS011;17335;50.720;7.452;2023-11-21T12:25:16;53.33;;;15.75;;
30553;SDS011;17335;50.720;7.452;2023-11-21T12:30:17;38.28;;;14.75;;
30553;SDS011;17335;50.720;7.452;2023-11-21T12:32:58;45.33;;;15.52;;
30553;SDS011;17335;50.720;7.452;2023-11-21T12:35:31;46.08;;;14.65;;
30553;SDS011;17335;50.720;7.452;2023-11-21T12:38:07;43.33;;;14.77;;
30553;SDS011;17335;50.720;7.452;2023-11-21T12:40:38;45.95;;;15.88;;
30553;SDS011;17335;50.720;7.452;2023-11-21T12:43:07;43.35;;;15.85;;
30553;SDS011;17335;50.720;7.452;2023-11-21T12:45:35;46.20;;;15.00;;
30553;SDS011;17335;50.720;7.452;2023-11-21T12:48:08;40.30;;;15.60;;
30553;SDS011;17335;50.720;7.452;2023-11-21T12:50:38;46.30;;;14.20;;
30553;SDS011;17335;50.720;7.452;2023-11-21T12:59:32;34.92;;;13.77;;
30553;SDS011;17335;50.720;7.452;2023-11-21T13:02:04;42.92;;;14.43;;
30553;SDS011;17335;50.720;7.452;2023-11-21T13:04:32;42.45;;;13.70;;
30553;SDS011;17335;50.720;7.452;2023-11-21T13:07:04;38.45;;;14.00;;
30553;SDS011;17335;50.720;7.452;2023-11-21T13:09:40;34.00;;;13.25;;
30553;SDS011;17335;50.720;7.452;2023-11-21T13:12:08;37.35;;;13.50;;
30553;SDS011;17335;50.720;7.452;2023-11-21T13:14:35;46.28;;;15.43;;
30553;SDS011;17335;50.720;7.452;2023-11-21T13:17:03;47.85;;;14.55;;
30553;SDS011;17335;50.720;7.452;2023-11-21T13:19:30;48.10;;;15.15;;
30553;SDS011;17335;50.720;7.452;2023-11-21T13:21:57;39.72;;;13.32;;
30553;SDS011;17335;50.720;7.452;2023-11-21T13:24:24;41.88;;;14.05;;
30553;SDS011;17335;50.720;7.452;2023-11-21T13:26:52;40.75;;;14.32;;
30553;SDS011;17335;50.720;7.452;2023-11-21T13:29:19;39.83;;;14.80;;
30553;SDS011;17335;50.720;7.452;2023-11-21T13:31:47;39.90;;;14.57;;
30553;SDS011;17335;50.720;7.452;2023-11-21T13:34:17;38.60;;;15.07;;
30553;SDS011;17335;50.720;7.452;2023-11-21T13:36:49;43.15;;;13.65;;
30553;SDS011;17335;50.720;7.452;2023-11-21T13:39:20;44.03;;;15.15;;
30553;SDS011;17335;50.720;7.452;2023-11-21T13:41:47;33.97;;;12.48;;
30553;SDS011;17335;50.720;7.452;2023-11-21T13:44:20;45.45;;;14.13;;
30553;SDS011;17335;50.720;7.452;2023-11-21T13:46:55;39.97;;;12.73;;
30553;SDS011;17335;50.720;7.452;2023-11-21T13:49:24;38.00;;;12.18;;
30553;SDS011;17335;50.720;7.452;2023-11-21T13:51:52;38.78;;;13.50;;
30553;SDS011;17335;50.720;7.452;2023-11-21T13:54:21;36.15;;;13.85;;
30553;SDS011;17335;50.720;7.452;2023-11-21T13:56:50;38.35;;;13.63;;
30553;SDS011;17335;50.720;7.452;2023-11-21T13:59:17;32.38;;;12.63;;
30553;SDS011;17335;50.720;7.452;2023-11-21T14:01:51;40.78;;;13.10;;
30553;SDS011;17335;50.720;7.452;2023-11-21T14:04:23;41.17;;;11.80;;
30553;SDS011;17335;50.720;7.452;2023-11-21T14:06:56;37.60;;;12.35;;
30553;SDS011;17335;50.720;7.452;2023-11-21T14:09:25;34.03;;;11.63;;
30553;SDS011;17335;50.720;7.452;2023-11-21T14:11:58;42.67;;;12.02;;
30553;SDS011;17335;50.720;7.452;2023-11-21T14:14:27;39.42;;;12.40;;
30553;SDS011;17335;50.720;7.452;2023-11-21T14:16:56;38.60;;;12.90;;
30553;SDS011;17335;50.720;7.452;2023-11-21T14:19:25;36.83;;;12.55;;
30553;SDS011;17335;50.720;7.452;2023-11-21T14:21:59;36.25;;;12.70;;
30553;SDS011;17335;50.720;7.452;2023-11-21T14:24:26;36.63;;;12.32;;
30553;SDS011;17335;50.720;7.452;2023-11-21T14:26:52;38.42;;;14.07;;
30553;SDS011;17335;50.720;7.452;2023-11-21T14:29:19;38.47;;;13.18;;
30553;SDS011;17335;50.720;7.452;2023-11-21T14:31:50;39.05;;;15.02;;
30553;SDS011;17335;50.720;7.452;2023-11-21T14:34:18;44.85;;;12.88;;
30553;SDS011;17335;50.720;7.452;2023-11-21T14:36:48;39.40;;;14.02;;
30553;SDS011;17335;50.720;7.452;2023-11-21T14:39:15;45.60;;;14.45;;
30553;SDS011;17335;50.720;7.452;2023-11-21T14:41:50;39.38;;;14.23;;
30553;SDS011;17335;50.720;7.452;2023-11-21T14:44:18;39.75;;;13.88;;
30553;SDS011;17335;50.720;7.452;2023-11-21T14:46:47;40.38;;;13.77;;
30553;SDS011;17335;50.720;7.452;2023-11-21T14:49:16;41.63;;;14.10;;
30553;SDS011;17335;50.720;7.452;2023-11-21T14:51:47;41.03;;;15.23;;
30553;SDS011;17335;50.720;7.452;2023-11-21T14:54:27;43.67;;;14.05;;
30553;SDS011;17335;50.720;7.452;2023-11-21T14:57:07;51.17;;;13.50;;
30553;SDS011;17335;50.720;7.452;2023-11-21T14:59:42;33.60;;;13.15;;
30553;SDS011;17335;50.720;7.452;2023-11-21T15:02:24;41.65;;;13.27;;
30553;SDS011;17335;50.720;7.452;2023-11-21T15:05:29;39.03;;;13.83;;